Time;durP1;ratioP1;P1;durP2;ratioP2;P2;SDS_P1;SDS_P2;PMS_P1;PMS_P2;Temp;Humidity;BMP_temperature;BMP_pressure;BME280_temperature;BME280_humidity;BME280_pressure;Samples;Min_cycle;Max_cycle;Signal;HPM_P1;HPM_P2
2021/09/24 00:04:42;;;;;;;4.87;1.43;;;17.60;77.80;;;;;;10489529;28;20235;-66
2021/09/24 00:10:07;;;;;;;3.20;1.40;;;17.60;77.80;;;;;;10485768;28;20232;-63
2021/09/24 00:15:29;;;;;;;4.40;1.67;;;17.60;77.80;;;;;;10484777;28;20184;-65
2021/09/24 00:20:51;;;;;;;3.20;1.30;;;17.70;77.80;;;;;;10463752;28;20213;-68
2021/09/24 00:26:15;;;;;;;2.47;1.23;;;17.70;77.80;;;;;;10458053;28;20239;-65
2021/09/24 00:31:37;;;;;;;3.23;1.50;;;17.70;77.90;;;;;;10459897;28;20212;-66
2021/09/24 00:36:59;;;;;;;2.57;1.30;;;17.70;77.80;;;;;;10514667;28;20203;-64
2021/09/24 00:42:23;;;;;;;4.63;1.83;;;17.70;77.90;;;;;;10478815;28;20252;-65
2021/09/24 00:47:45;;;;;;;4.67;1.43;;;17.60;77.80;;;;;;10475755;28;20201;-64
2021/09/24 00:53:09;;;;;;;2.73;1.50;;;17.70;77.90;;;;;;10459947;28;20818;-63
2021/09/24 00:58:33;;;;;;;2.10;1.33;;;17.70;77.80;;;;;;10502837;28;20209;-68
2021/09/24 01:03:55;;;;;;;3.97;1.47;;;17.60;77.90;;;;;;10484929;28;20229;-62
2021/09/24 01:09:17;;;;;;;3.13;1.60;;;17.70;77.90;;;;;;10493241;28;20228;-64
2021/09/24 01:14:41;;;;;;;2.90;1.60;;;17.70;77.90;;;;;;10499738;28;20196;-65
2021/09/24 01:20:04;;;;;;;3.93;1.60;;;17.70;77.90;;;;;;10497038;28;20749;-65
2021/09/24 01:25:28;;;;;;;3.40;1.53;;;17.70;77.90;;;;;;10499126;28;20710;-65
2021/09/24 01:30:50;;;;;;;2.90;1.27;;;17.70;77.90;;;;;;10469046;28;20216;-66
2021/09/24 01:36:12;;;;;;;3.17;1.47;;;17.70;77.90;;;;;;10484293;28;20201;-66
2021/09/24 01:41:38;;;;;;;3.87;1.50;;;17.60;77.90;;;;;;10456184;28;20220;-66
2021/09/24 01:47:01;;;;;;;3.27;1.73;;;17.70;77.90;;;;;;10469903;28;20695;-66
2021/09/24 01:52:23;;;;;;;3.07;1.53;;;17.70;77.90;;;;;;10497051;28;20243;-67
2021/09/24 01:57:47;;;;;;;2.77;1.43;;;17.70;78.00;;;;;;10496708;28;20204;-65
2021/09/24 02:03:09;;;;;;;2.00;0.93;;;17.70;78.00;;;;;;10480429;28;20595;-64
2021/09/24 02:08:31;;;;;;;4.20;1.70;;;17.70;77.90;;;;;;10497302;28;20595;-66
2021/09/24 02:13:54;;;;;;;3.93;1.30;;;17.60;77.90;;;;;;10499730;28;20192;-65
2021/09/24 02:19:17;;;;;;;5.93;1.50;;;17.60;77.90;;;;;;10493721;28;20250;-65
2021/09/24 02:24:39;;;;;;;3.27;1.27;;;17.70;78.00;;;;;;10487828;28;20587;-66
2021/09/24 02:30:02;;;;;;;2.30;1.20;;;17.60;77.90;;;;;;10476109;28;20228;-65
2021/09/24 02:35:25;;;;;;;3.50;1.77;;;17.60;78.00;;;;;;10480697;28;20695;-64
2021/09/24 02:40:47;;;;;;;3.13;1.30;;;17.70;78.50;;;;;;10495400;28;20216;-63
2021/09/24 02:46:10;;;;;;;2.97;1.53;;;17.60;77.90;;;;;;10490276;28;20213;-63
2021/09/24 02:51:33;;;;;;;3.33;1.57;;;17.70;78.00;;;;;;10453282;28;20213;-65
2021/09/24 02:56:55;;;;;;;2.67;1.67;;;17.60;77.90;;;;;;10478199;28;20193;-65
2021/09/24 03:02:18;;;;;;;3.13;1.47;;;17.70;78.00;;;;;;10457203;28;20220;-67
2021/09/24 03:07:40;;;;;;;3.40;1.33;;;17.60;78.00;;;;;;10453149;28;20695;-65
2021/09/24 03:13:03;;;;;;;2.57;1.10;;;17.60;77.90;;;;;;10496307;28;20595;-66
2021/09/24 03:18:26;;;;;;;3.73;1.50;;;17.60;77.90;;;;;;10493956;28;20691;-66
2021/09/24 03:23:49;;;;;;;2.47;1.30;;;17.70;78.10;;;;;;10547983;22;20228;-61
2021/09/24 03:29:12;;;;;;;3.27;1.17;;;17.70;78.00;;;;;;10511593;28;20206;-62
2021/09/24 03:34:35;;;;;;;3.17;1.23;;;17.60;78.00;;;;;;10536575;28;20204;-61
2021/09/24 03:39:58;;;;;;;4.73;1.73;;;17.60;78.00;;;;;;10535363;28;20199;-60
2021/09/24 03:45:20;;;;;;;3.33;1.20;;;17.60;78.00;;;;;;10547163;28;20216;-61
2021/09/24 03:50:44;;;;;;;2.30;1.33;;;17.60;78.00;;;;;;10535070;28;20211;-63
2021/09/24 03:56:06;;;;;;;2.03;1.20;;;17.60;78.00;;;;;;10542621;28;20245;-62
2021/09/24 04:01:28;;;;;;;2.47;1.40;;;17.60;78.00;;;;;;10533835;28;20211;-62
2021/09/24 04:06:52;;;;;;;3.43;1.60;;;17.60;78.00;;;;;;10536665;28;20212;-59
2021/09/24 04:12:14;;;;;;;1.97;1.10;;;17.60;78.00;;;;;;10537837;28;20873;-60
2021/09/24 04:17:36;;;;;;;2.80;1.13;;;17.60;78.10;;;;;;10537039;28;20192;-62
2021/09/24 04:22:59;;;;;;;2.57;1.33;;;17.60;78.10;;;;;;10535025;28;20721;-62
2021/09/24 04:28:21;;;;;;;2.27;1.20;;;17.70;78.10;;;;;;10516668;28;20231;-62
2021/09/24 04:33:43;;;;;;;5.17;1.50;;;17.60;78.10;;;;;;10512392;28;20216;-61
2021/09/24 04:39:07;;;;;;;2.10;1.30;;;17.60;78.00;;;;;;10491865;28;20200;-62
2021/09/24 04:44:29;;;;;;;2.63;1.40;;;17.60;78.00;;;;;;10495335;28;20204;-61
2021/09/24 04:49:51;;;;;;;2.80;1.33;;;17.60;78.00;;;;;;10497882;28;20200;-63
2021/09/24 04:55:15;;;;;;;2.70;1.27;;;17.60;77.90;;;;;;10536267;28;20575;-64
2021/09/24 05:00:37;;;;;;;2.53;1.27;;;17.60;78.00;;;;;;10536343;28;20579;-63
2021/09/24 05:05:59;;;;;;;2.50;1.33;;;17.60;78.00;;;;;;10517390;28;20568;-59
2021/09/24 05:11:22;;;;;;;3.43;1.43;;;17.60;78.00;;;;;;10522125;28;20220;-61
2021/09/24 05:16:44;;;;;;;3.93;1.63;;;17.60;78.00;;;;;;10523757;28;20181;-65
2021/09/24 05:22:06;;;;;;;2.43;1.30;;;17.60;78.00;;;;;;10527417;28;20236;-62
2021/09/24 05:27:30;;;;;;;2.00;1.13;;;17.60;78.00;;;;;;10525738;28;20212;-63
2021/09/24 05:32:53;;;;;;;3.97;1.60;;;17.60;78.00;;;;;;10525416;28;20695;-61
2021/09/24 05:38:15;;;;;;;1.93;1.20;;;17.60;78.00;;;;;;10526959;28;20238;-63
2021/09/24 05:43:39;;;;;;;2.13;0.90;;;17.60;78.00;;;;;;10523249;28;20211;-61
2021/09/24 05:49:01;;;;;;;1.63;1.17;;;17.60;78.00;;;;;;10534022;28;20570;-63
2021/09/24 05:54:24;;;;;;;2.37;1.30;;;17.60;78.00;;;;;;10545965;28;20216;-63
2021/09/24 05:59:47;;;;;;;2.03;1.27;;;17.60;78.00;;;;;;10550057;28;20207;-63
2021/09/24 06:05:10;;;;;;;3.53;1.33;;;17.60;78.00;;;;;;10511652;28;20216;-70
2021/09/24 06:10:32;;;;;;;1.80;1.23;;;17.60;78.00;;;;;;10512720;28;20595;-68
2021/09/24 06:15:56;;;;;;;3.50;1.33;;;17.60;78.00;;;;;;10532622;28;20199;-68
2021/09/24 06:21:18;;;;;;;3.67;1.60;;;17.60;78.00;;;;;;10497860;28;20228;-66
2021/09/24 06:26:41;;;;;;;2.30;1.03;;;17.60;77.90;;;;;;10497861;28;20274;-67
2021/09/24 06:32:05;;;;;;;3.93;1.23;;;17.60;77.80;;;;;;10508838;28;20215;-66
2021/09/24 06:37:27;;;;;;;4.63;1.20;;;17.50;77.80;;;;;;10517589;28;20207;-67
2021/09/24 06:42:49;;;;;;;4.90;1.73;;;17.60;77.70;;;;;;10500476;28;20231;-67
2021/09/24 06:48:13;;;;;;;5.47;1.43;;;17.50;77.60;;;;;;10508326;28;20386;-68
2021/09/24 06:53:35;;;;;;;4.93;1.47;;;17.50;77.60;;;;;;10491334;28;20219;-66
2021/09/24 06:59:00;;;;;;;4.97;1.03;;;17.50;77.60;;;;;;10506438;28;20187;-67
2021/09/24 07:04:24;;;;;;;4.53;1.23;;;17.50;77.60;;;;;;10532922;28;20219;-67
2021/09/24 07:09:46;;;;;;;5.93;1.77;;;17.50;77.70;;;;;;10518478;28;20202;-67
2021/09/24 07:15:09;;;;;;;4.97;1.43;;;17.50;77.60;;;;;;10492331;28;20218;-68
2021/09/24 07:20:32;;;;;;;5.03;1.30;;;17.50;77.70;;;;;;10519449;28;20263;-67
2021/09/24 07:25:54;;;;;;;3.77;1.30;;;17.50;77.80;;;;;;10528261;28;20215;-66
2021/09/24 07:31:17;;;;;;;4.73;1.13;;;17.50;77.90;;;;;;10509292;28;20223;-67
2021/09/24 07:36:40;;;;;;;5.50;1.50;;;17.50;77.90;;;;;;10514160;28;20195;-66
2021/09/24 07:42:02;;;;;;;3.27;1.53;;;17.50;78.10;;;;;;10496360;28;20248;-66
2021/09/24 07:47:24;;;;;;;3.93;1.27;;;17.50;78.10;;;;;;10517012;28;20564;-66
2021/09/24 07:52:48;;;;;;;5.67;1.37;;;17.50;78.20;;;;;;10528183;28;20223;-66
2021/09/24 07:58:10;;;;;;;6.00;1.40;;;17.50;78.30;;;;;;10529844;28;20202;-67
2021/09/24 08:03:32;;;;;;;5.33;1.83;;;17.50;78.40;;;;;;10491284;28;20211;-68
2021/09/24 08:08:56;;;;;;;4.13;1.40;;;17.50;78.50;;;;;;10528732;28;20718;-68
2021/09/24 08:14:18;;;;;;;5.40;1.40;;;17.50;78.50;;;;;;10528769;28;20211;-67
2021/09/24 08:19:40;;;;;;;2.73;1.33;;;17.50;78.60;;;;;;10492890;28;20199;-67
2021/09/24 08:25:04;;;;;;;4.33;1.30;;;17.50;78.60;;;;;;10522723;28;20590;-68
2021/09/24 08:30:28;;;;;;;3.77;1.20;;;17.50;78.80;;;;;;10508072;28;20614;-67
2021/09/24 08:35:50;;;;;;;5.23;1.30;;;17.50;78.90;;;;;;10512575;28;20199;-67
2021/09/24 08:41:13;;;;;;;8.23;1.60;;;17.50;78.90;;;;;;10526430;28;20224;-67
2021/09/24 08:46:35;;;;;;;4.17;1.63;;;17.50;79.00;;;;;;10506430;28;20216;-66
2021/09/24 08:51:58;;;;;;;5.33;1.43;;;17.50;79.10;;;;;;10498266;28;20805;-67
2021/09/24 08:57:21;;;;;;;5.27;1.70;;;17.60;79.20;;;;;;10500519;28;20203;-67
2021/09/24 09:02:58;;;;;;;4.17;1.63;;;17.50;79.20;;;;;;10538715;28;20218;-67
2021/09/24 09:08:24;;;;;;;5.47;1.33;;;17.50;79.20;;;;;;10537183;28;20219;-67
2021/09/24 09:13:50;;;;;;;4.63;1.20;;;17.50;79.30;;;;;;10516557;28;20733;-67
2021/09/24 09:19:15;;;;;;;3.93;1.30;;;17.50;79.40;;;;;;10504058;28;20193;-66
2021/09/24 09:24:44;;;;;;;3.70;1.43;;;17.50;79.40;;;;;;10542814;22;20384;-65
2021/09/24 09:30:12;;;;;;;5.10;1.43;;;17.50;79.40;;;;;;10534562;28;20233;-64
2021/09/24 09:35:37;;;;;;;2.63;1.10;;;17.50;79.40;;;;;;10506104;28;20275;-63
2021/09/24 09:41:02;;;;;;;3.43;1.40;;;17.50;79.40;;;;;;10487979;28;20227;-63
2021/09/24 09:46:27;;;;;;;3.40;1.37;;;17.50;79.40;;;;;;10522029;28;20212;-64
2021/09/24 09:51:49;;;;;;;3.97;1.13;;;17.60;79.50;;;;;;10495770;28;20223;-63
2021/09/24 09:57:14;;;;;;;3.23;1.10;;;17.50;79.50;;;;;;10490304;28;20184;-63
2021/09/24 10:02:37;;;;;;;3.63;1.17;;;17.60;79.60;;;;;;10483182;28;20220;-64
2021/09/24 10:08:01;;;;;;;2.40;0.90;;;17.50;79.50;;;;;;10493330;28;20228;-64
2021/09/24 10:13:24;;;;;;;2.53;0.83;;;17.60;79.60;;;;;;10492139;28;20345;-64
2021/09/24 10:18:48;;;;;;;4.63;1.07;;;17.50;79.50;;;;;;10492231;28;20654;-64
2021/09/24 10:24:10;;;;;;;3.93;1.10;;;17.60;79.60;;;;;;10454179;28;20201;-64
2021/09/24 10:29:36;;;;;;;1.47;0.87;;;17.60;79.50;;;;;;10493628;28;20304;-64
2021/09/24 10:35:01;;;;;;;2.80;1.00;;;17.60;79.50;;;;;;10493781;28;20199;-63
2021/09/24 10:40:28;;;;;;;2.77;0.80;;;17.60;79.60;;;;;;10487668;28;20220;-63
2021/09/24 10:45:50;;;;;;;3.30;0.67;;;17.60;79.60;;;;;;10494960;28;20215;-63
2021/09/24 10:51:14;;;;;;;2.23;0.93;;;17.60;79.50;;;;;;10461416;28;20225;-63
2021/09/24 10:56:36;;;;;;;3.17;1.13;;;17.70;79.40;;;;;;10453726;28;20570;-64
2021/09/24 11:01:59;;;;;;;1.87;1.00;;;17.70;79.10;;;;;;10489990;28;20713;-63
2021/09/24 11:07:33;;;;;;;2.20;0.80;;;17.80;79.20;;;;;;10466947;28;20582;-64
2021/09/24 11:13:10;;;;;;;2.30;1.10;;;17.70;79.20;;;;;;10450732;28;20594;-65
2021/09/24 11:18:46;;;;;;;1.63;0.70;;;17.70;79.20;;;;;;10488900;28;20203;-64
2021/09/24 11:24:31;;;;;;;3.57;0.70;;;17.70;79.30;;;;;;10461196;28;20216;-63
2021/09/24 11:30:09;;;;;;;2.13;0.77;;;17.70;79.20;;;;;;10451541;28;20224;-64
2021/09/24 11:35:39;;;;;;;3.50;1.00;;;17.80;79.20;;;;;;10473768;28;20692;-64
2021/09/24 11:41:04;;;;;;;1.60;0.73;;;17.70;79.20;;;;;;10450516;28;20217;-62
2021/09/24 11:46:27;;;;;;;3.60;1.03;;;17.80;79.30;;;;;;10462898;28;20216;-63
2021/09/24 11:51:57;;;;;;;2.33;0.90;;;17.80;79.30;;;;;;10449665;28;20646;-62
2021/09/24 11:57:22;;;;;;;1.40;0.77;;;17.70;79.30;;;;;;10463552;28;20567;-62
2021/09/24 12:02:44;;;;;;;2.30;0.70;;;17.80;79.40;;;;;;10480888;28;20219;-65
2021/09/24 12:08:13;;;;;;;3.23;0.90;;;17.80;79.30;;;;;;10467219;28;20221;-63
2021/09/24 12:13:49;;;;;;;3.03;1.30;;;17.80;79.80;;;;;;10471144;28;20228;-63
2021/09/24 12:19:12;;;;;;;3.97;1.67;;;17.80;80.10;;;;;;10477362;28;20192;-62
2021/09/24 12:24:39;;;;;;;2.97;1.30;;;17.90;80.50;;;;;;10489859;28;20735;-63
2021/09/24 12:30:16;;;;;;;1.47;1.10;;;18.00;80.50;;;;;;10496080;28;20353;-61
2021/09/24 12:35:38;;;;;;;3.00;1.60;;;18.00;80.30;;;;;;10463652;28;20201;-62
2021/09/24 12:41:08;;;;;;;3.00;1.27;;;18.10;80.40;;;;;;10488980;28;20220;-62
2021/09/24 12:46:39;;;;;;;3.83;1.20;;;18.10;80.20;;;;;;10498088;28;20227;-63
2021/09/24 12:52:02;;;;;;;5.40;1.53;;;18.20;80.10;;;;;;10497998;28;20559;-63
2021/09/24 12:57:24;;;;;;;2.20;1.20;;;18.20;80.10;;;;;;10489695;28;20201;-63
2021/09/24 13:02:48;;;;;;;4.27;1.50;;;18.10;80.30;;;;;;10497945;28;20586;-63
2021/09/24 13:08:10;;;;;;;5.10;1.87;;;18.10;80.00;;;;;;10494197;28;20224;-64
2021/09/24 13:13:32;;;;;;;3.63;1.50;;;18.10;79.90;;;;;;10455837;28;20235;-64
2021/09/24 13:18:58;;;;;;;4.90;1.77;;;18.10;79.80;;;;;;10457416;28;20196;-64
2021/09/24 13:24:20;;;;;;;3.17;1.57;;;18.10;79.90;;;;;;10456077;28;20204;-62
2021/09/24 13:29:45;;;;;;;4.33;1.93;;;18.10;80.00;;;;;;10487894;28;20224;-62
2021/09/24 13:35:10;;;;;;;4.03;1.73;;;18.00;80.00;;;;;;10497707;28;20565;-63
2021/09/24 13:40:32;;;;;;;4.53;1.90;;;18.00;80.00;;;;;;10494765;28;20223;-63
2021/09/24 13:45:54;;;;;;;3.37;1.93;;;17.90;80.00;;;;;;10496157;28;20204;-63
2021/09/24 13:51:18;;;;;;;5.90;1.80;;;17.90;80.20;;;;;;10495223;28;20212;-64
2021/09/24 13:56:40;;;;;;;3.73;1.73;;;17.90;80.20;;;;;;10497351;28;20535;-62
2021/09/24 14:02:02;;;;;;;4.93;2.07;;;17.90;80.10;;;;;;10484413;28;20707;-62
2021/09/24 14:07:26;;;;;;;4.83;2.20;;;17.90;80.30;;;;;;10535231;28;20216;-62
2021/09/24 14:12:49;;;;;;;3.70;1.87;;;17.90;80.40;;;;;;10493650;28;20216;-62
2021/09/24 14:18:11;;;;;;;3.00;1.57;;;17.90;80.20;;;;;;10473545;28;20203;-61
2021/09/24 14:23:35;;;;;;;3.40;2.17;;;18.00;80.70;;;;;;10495428;28;20224;-63
2021/09/24 14:28:57;;;;;;;9.67;2.07;;;18.00;80.60;;;;;;10464198;28;20590;-62
2021/09/24 14:34:19;;;;;;;4.80;2.10;;;18.00;80.60;;;;;;10452984;28;20574;-64
2021/09/24 14:39:43;;;;;;;4.30;1.93;;;18.10;80.60;;;;;;10455314;28;20209;-63
2021/09/24 14:45:06;;;;;;;3.63;1.93;;;18.10;80.60;;;;;;10487857;28;20204;-63
2021/09/24 14:50:29;;;;;;;3.97;2.20;;;18.10;80.50;;;;;;10452895;28;20217;-63
2021/09/24 14:55:52;;;;;;;3.67;2.20;;;18.20;80.40;;;;;;10448658;28;20193;-62
2021/09/24 15:01:15;;;;;;;3.00;1.90;;;18.20;80.40;;;;;;10461949;28;20223;-63
2021/09/24 15:06:37;;;;;;;4.97;2.70;;;18.20;80.30;;;;;;10452334;28;20217;-63
2021/09/24 15:12:01;;;;;;;5.83;3.50;;;18.10;80.40;;;;;;10451515;28;20221;-63
2021/09/24 15:17:23;;;;;;;4.97;3.30;;;18.10;80.50;;;;;;10451210;28;20201;-62
2021/09/24 15:22:45;;;;;;;9.37;5.57;;;18.10;80.70;;;;;;10481441;22;20800;-67
2021/09/24 15:28:10;;;;;;;5.03;3.67;;;18.00;80.70;;;;;;10493091;28;20223;-66
2021/09/24 15:33:33;;;;;;;5.93;4.13;;;18.00;80.70;;;;;;10508398;28;20224;-66
2021/09/24 15:38:56;;;;;;;8.90;5.23;;;18.00;80.80;;;;;;10493520;28;20195;-66
2021/09/24 15:44:20;;;;;;;13.20;6.40;;;18.00;80.80;;;;;;10497838;28;20678;-66
2021/09/24 15:49:43;;;;;;;8.23;5.53;;;18.00;80.80;;;;;;10491635;28;20224;-66
2021/09/24 15:55:08;;;;;;;8.37;6.03;;;18.00;80.70;;;;;;10491387;28;20208;-67
2021/09/24 16:00:32;;;;;;;11.95;7.38;;;18.00;80.80;;;;;;10504139;28;20799;-67
2021/09/24 16:05:54;;;;;;;10.17;6.60;;;18.10;80.50;;;;;;10494214;28;20219;-66
2021/09/24 16:11:17;;;;;;;7.73;5.70;;;18.10;80.40;;;;;;10515432;28;20219;-66
2021/09/24 16:16:42;;;;;;;11.47;6.73;;;18.00;80.60;;;;;;10506949;28;20584;-67
2021/09/24 16:22:04;;;;;;;7.67;5.63;;;18.00;81.30;;;;;;10502316;28;20224;-66
2021/09/24 16:27:27;;;;;;;8.13;6.03;;;18.00;80.80;;;;;;10508092;28;20700;-67
2021/09/24 16:32:50;;;;;;;7.50;5.83;;;17.90;80.90;;;;;;10524874;28;20230;-67
2021/09/24 16:38:13;;;;;;;7.30;5.17;;;18.00;80.90;;;;;;10510864;28;20195;-67
2021/09/24 16:43:35;;;;;;;6.83;5.67;;;17.90;80.90;;;;;;10524370;28;20220;-66
2021/09/24 16:48:59;;;;;;;7.00;5.53;;;17.90;80.70;;;;;;10506994;28;20223;-66
2021/09/24 16:54:21;;;;;;;8.73;5.30;;;18.00;80.60;;;;;;10486464;28;20223;-67
2021/09/24 16:59:43;;;;;;;7.00;5.60;;;18.00;80.50;;;;;;10483011;28;20256;-67
2021/09/24 17:05:08;;;;;;;9.80;5.90;;;18.00;80.40;;;;;;10518586;28;20665;-67
2021/09/24 17:10:31;;;;;;;7.65;5.65;;;18.00;80.40;;;;;;10519442;28;20379;-69
2021/09/24 17:15:53;;;;;;;6.33;5.33;;;18.00;80.40;;;;;;10493400;28;20680;-65
2021/09/24 17:21:17;;;;;;;7.97;5.80;;;18.00;80.40;;;;;;10504449;28;20224;-64
2021/09/24 17:26:39;;;;;;;8.87;6.10;;;18.00;80.40;;;;;;10513075;28;20213;-65
2021/09/24 17:32:01;;;;;;;8.53;5.90;;;18.00;80.50;;;;;;10520606;28;20589;-65
2021/09/24 17:37:25;;;;;;;8.10;6.17;;;18.00;80.50;;;;;;10500668;28;20254;-64
2021/09/24 17:42:49;;;;;;;9.77;5.47;;;18.00;80.40;;;;;;10503275;28;20213;-62
2021/09/24 17:48:11;;;;;;;8.90;5.63;;;18.00;80.40;;;;;;10520587;28;20224;-63
2021/09/24 17:53:35;;;;;;;8.73;5.90;;;18.00;80.30;;;;;;10491369;28;20766;-63
2021/09/24 17:58:57;;;;;;;7.60;6.23;;;18.10;80.40;;;;;;10490199;28;20204;-62
2021/09/24 18:04:19;;;;;;;7.13;5.73;;;18.00;80.30;;;;;;10512939;28;20204;-61
2021/09/24 18:09:43;;;;;;;11.17;6.27;;;18.00;80.50;;;;;;10516675;28;20220;-60
2021/09/24 18:15:06;;;;;;;8.23;6.13;;;18.00;80.50;;;;;;10530210;28;20932;-63
2021/09/24 18:20:28;;;;;;;9.40;7.00;;;18.00;80.80;;;;;;10530194;28;20223;-65
2021/09/24 18:25:52;;;;;;;9.90;7.57;;;18.00;80.90;;;;;;10490734;28;20207;-63
2021/09/24 18:31:14;;;;;;;11.10;9.68;;;18.00;81.30;;;;;;10494163;28;20456;-64
2021/09/24 18:36:36;;;;;;;10.53;8.47;;;18.20;80.60;;;;;;10508928;28;20193;-63
2021/09/24 18:42:00;;;;;;;7.87;7.07;;;18.20;80.60;;;;;;10520105;28;20219;-63
2021/09/24 18:47:23;;;;;;;10.97;7.10;;;18.10;80.80;;;;;;10505492;28;20219;-63
2021/09/24 18:52:46;;;;;;;9.53;7.13;;;18.10;81.00;;;;;;10523878;28;20223;-62
2021/09/24 18:58:11;;;;;;;9.57;7.03;;;18.10;81.10;;;;;;10533785;28;20196;-63
2021/09/24 19:03:33;;;;;;;8.67;6.83;;;18.10;81.10;;;;;;10511332;28;20227;-63
2021/09/24 19:08:55;;;;;;;9.33;6.50;;;18.00;81.10;;;;;;10516491;28;20212;-61
2021/09/24 19:14:19;;;;;;;9.70;7.47;;;18.00;81.20;;;;;;10493034;28;20199;-64
2021/09/24 19:19:41;;;;;;;10.97;7.87;;;18.10;81.40;;;;;;10493663;28;20761;-62
2021/09/24 19:25:06;;;;;;;8.87;6.87;;;18.00;81.40;;;;;;10534923;28;20195;-63
2021/09/24 19:30:30;;;;;;;7.97;7.17;;;18.10;81.40;;;;;;10532380;28;20222;-64
2021/09/24 19:35:52;;;;;;;7.70;6.90;;;18.10;81.40;;;;;;10533369;28;20196;-64
2021/09/24 19:41:14;;;;;;;10.07;7.07;;;18.00;81.40;;;;;;10524689;28;20208;-64
2021/09/24 19:46:38;;;;;;;8.07;7.27;;;18.10;81.40;;;;;;10521053;28;20215;-64
2021/09/24 19:52:00;;;;;;;7.00;6.37;;;18.10;81.40;;;;;;10533722;28;20574;-64
2021/09/24 19:57:22;;;;;;;8.97;7.13;;;18.00;81.30;;;;;;10537438;28;20285;-63
2021/09/24 20:02:46;;;;;;;6.90;6.23;;;18.10;81.40;;;;;;10518150;28;20223;-63
2021/09/24 20:08:08;;;;;;;7.43;6.60;;;18.10;81.40;;;;;;10514070;28;20212;-64
2021/09/24 20:13:30;;;;;;;8.90;6.30;;;18.10;81.30;;;;;;10512036;28;20736;-64
2021/09/24 20:18:53;;;;;;;7.13;6.20;;;18.00;81.10;;;;;;10509839;28;20538;-64
2021/09/24 20:24:16;;;;;;;7.50;6.70;;;18.00;81.10;;;;;;10483031;28;20192;-64
2021/09/24 20:29:38;;;;;;;6.33;5.70;;;18.00;80.90;;;;;;10469774;28;20216;-64
2021/09/24 20:35:02;;;;;;;6.33;5.27;;;18.00;80.80;;;;;;10457445;28;20201;-64
2021/09/24 20:40:24;;;;;;;6.63;5.93;;;18.00;80.70;;;;;;10489710;28;20220;-64
2021/09/24 20:45:47;;;;;;;6.23;5.63;;;18.00;80.70;;;;;;10464114;28;20567;-64
2021/09/24 20:51:10;;;;;;;6.30;5.70;;;18.00;80.60;;;;;;10456929;28;20307;-63
2021/09/24 20:56:32;;;;;;;6.97;5.87;;;18.00;80.50;;;;;;10457899;28;20201;-64
2021/09/24 21:01:55;;;;;;;6.17;5.57;;;18.00;80.50;;;;;;10497404;28;20219;-64
2021/09/24 21:07:18;;;;;;;5.70;5.20;;;18.00;80.40;;;;;;10497480;28;20208;-63
2021/09/24 21:12:40;;;;;;;5.90;4.90;;;18.00;80.40;;;;;;10496348;28;20682;-64
2021/09/24 21:18:03;;;;;;;5.90;5.30;;;18.00;80.40;;;;;;10496401;28;20204;-64
2021/09/24 21:23:26;;;;;;;5.83;5.23;;;18.00;80.40;;;;;;10512375;22;20216;-59
2021/09/24 21:28:48;;;;;;;5.83;5.33;;;18.00;80.40;;;;;;10509866;28;20226;-61
2021/09/24 21:34:11;;;;;;;7.10;5.33;;;18.00;80.30;;;;;;10466125;28;20201;-61
2021/09/24 21:39:34;;;;;;;5.07;4.57;;;18.00;80.30;;;;;;10455417;28;20209;-61
2021/09/24 21:44:56;;;;;;;4.97;4.57;;;18.00;80.30;;;;;;10491752;28;20665;-62
2021/09/24 21:50:18;;;;;;;5.60;5.10;;;18.00;80.30;;;;;;10495690;28;20225;-61
2021/09/24 21:55:42;;;;;;;5.10;4.67;;;18.00;80.40;;;;;;10479501;28;20205;-61
2021/09/24 22:01:04;;;;;;;5.37;4.87;;;18.00;80.20;;;;;;10459758;28;20780;-62
2021/09/24 22:06:26;;;;;;;5.00;4.50;;;18.00;80.30;;;;;;10524322;28;20200;-60
2021/09/24 22:11:52;;;;;;;5.60;5.10;;;18.00;80.30;;;;;;10487582;28;20577;-63
2021/09/24 22:17:14;;;;;;;8.57;5.50;;;18.00;80.30;;;;;;10458290;28;20193;-61
2021/09/24 22:22:36;;;;;;;5.30;4.80;;;18.00;80.30;;;;;;10453693;28;20213;-61
2021/09/24 22:28:00;;;;;;;5.80;5.20;;;17.90;80.20;;;;;;10455402;28;20691;-60
2021/09/24 22:33:22;;;;;;;5.53;5.00;;;18.00;80.40;;;;;;10473609;28;20688;-62
2021/09/24 22:38:44;;;;;;;5.40;4.90;;;18.00;80.30;;;;;;10466769;28;20197;-62
2021/09/24 22:44:10;;;;;;;6.07;5.30;;;18.00;80.30;;;;;;10481317;28;20200;-63
2021/09/24 22:49:32;;;;;;;5.43;4.60;;;18.00;80.20;;;;;;10492822;28;20228;-61
2021/09/24 22:54:54;;;;;;;4.93;4.43;;;18.00;80.20;;;;;;10493289;28;20189;-61
2021/09/24 23:00:19;;;;;;;6.83;5.13;;;17.90;80.10;;;;;;10490132;28;20233;-61
2021/09/24 23:05:41;;;;;;;5.67;4.70;;;18.00;80.10;;;;;;10468405;28;20197;-61
2021/09/24 23:11:03;;;;;;;4.30;3.90;;;18.00;80.10;;;;;;10493858;28;20235;-61
2021/09/24 23:16:27;;;;;;;4.97;4.47;;;17.90;80.10;;;;;;10466454;28;20645;-62
2021/09/24 23:21:49;;;;;;;4.30;3.90;;;17.90;80.10;;;;;;10510257;28;20692;-61
2021/09/24 23:27:11;;;;;;;4.50;4.10;;;17.90;80.10;;;;;;10517196;28;20209;-62
2021/09/24 23:32:35;;;;;;;4.87;4.10;;;18.00;80.20;;;;;;10451427;28;20217;-62
2021/09/24 23:37:57;;;;;;;4.87;4.37;;;18.00;80.20;;;;;;10451824;28;20310;-61
2021/09/24 23:43:20;;;;;;;4.63;3.90;;;17.90;80.00;;;;;;10450505;28;20205;-61
2021/09/24 23:48:43;;;;;;;4.37;3.97;;;18.00;80.10;;;;;;10488999;28;20224;-61
2021/09/24 23:54:06;;;;;;;4.30;3.90;;;17.90;80.00;;;;;;10491827;28;20203;-59
2021/09/24 23:59:28;;;;;;;4.20;3.80;;;17.90;80.10;;;;;;10490293;28;20215;-62
